Time;durP1;ratioP1;P1;durP2;ratioP2;P2;SDS_P1;SDS_P2;PMS_P1;PMS_P2;Temp;Humidity;BMP_temperature;BMP_pressure;BME280_temperature;BME280_humidity;BME280_pressure;Samples;Min_cycle;Max_cycle;Signal;HPM_P1;HPM_P2
2023/02/14 00:01:24;;;;;;;8.00;7.30;;;16.10;84.10;;;;;;5030773;28;20403;-77
2023/02/14 00:03:50;;;;;;;8.00;7.28;;;16.10;84.10;;;;;;5031917;28;20154;-77
2023/02/14 00:06:15;;;;;;;8.18;7.40;;;16.10;84.20;;;;;;5034295;28;20052;-77
2023/02/14 00:08:43;;;;;;;8.85;8.05;;;16.10;84.20;;;;;;5033127;28;20044;-77
2023/02/14 00:11:09;;;;;;;7.88;7.07;;;16.10;84.10;;;;;;5034724;28;20153;-77
2023/02/14 00:13:35;;;;;;;8.60;7.80;;;16.10;84.10;;;;;;5031724;28;20037;-77
2023/02/14 00:16:01;;;;;;;7.72;7.03;;;16.00;84.00;;;;;;5034087;28;20072;-77
2023/02/14 00:19:01;;;;;;;8.60;7.80;;;16.00;84.10;;;;;;5029869;28;20548;-77
2023/02/14 00:21:12;;;;;;;8.85;7.95;;;16.00;84.00;;;;;;5031554;28;20118;-78
2023/02/14 00:23:37;;;;;;;8.32;7.55;;;16.00;83.90;;;;;;5016961;28;20124;-77
2023/02/14 00:26:03;;;;;;;8.13;7.43;;;16.00;84.00;;;;;;5028039;28;20046;-77
2023/02/14 00:28:29;;;;;;;8.15;7.43;;;16.00;84.00;;;;;;5022329;28;20510;-77
2023/02/14 00:30:56;;;;;;;7.28;6.68;;;16.00;83.90;;;;;;5020227;28;20049;-77
2023/02/14 00:33:21;;;;;;;9.35;7.28;;;16.00;83.90;;;;;;5027050;28;20038;-77
2023/02/14 00:35:47;;;;;;;8.15;7.05;;;16.00;83.80;;;;;;5023127;28;20527;-77
2023/02/14 00:38:13;;;;;;;7.38;6.70;;;16.00;83.70;;;;;;5026970;28;20029;-77
2023/02/14 00:40:38;;;;;;;7.97;7.28;;;16.00;83.80;;;;;;5022517;28;20533;-77
2023/02/14 00:43:04;;;;;;;7.82;7.13;;;15.90;83.80;;;;;;5025879;28;20049;-77
2023/02/14 00:45:29;;;;;;;7.60;6.97;;;16.00;83.80;;;;;;5021487;28;20092;-77
2023/02/14 00:47:55;;;;;;;7.40;6.80;;;15.90;83.60;;;;;;5032870;28;20422;-77
2023/02/14 00:50:20;;;;;;;7.47;6.78;;;15.90;83.60;;;;;;5016780;28;20524;-77
2023/02/14 00:52:46;;;;;;;7.05;6.35;;;16.00;83.70;;;;;;5023757;28;20534;-77
2023/02/14 00:55:11;;;;;;;7.35;6.65;;;15.90;83.60;;;;;;5033005;28;20049;-77
2023/02/14 00:57:37;;;;;;;6.70;6.18;;;15.90;83.60;;;;;;5025284;28;20073;-77
2023/02/14 01:00:03;;;;;;;6.55;6.07;;;15.90;83.70;;;;;;5032393;28;20057;-77
2023/02/14 01:02:29;;;;;;;8.07;7.35;;;15.90;83.80;;;;;;5033096;28;20044;-77
2023/02/14 01:04:54;;;;;;;7.00;6.40;;;15.80;83.80;;;;;;5030036;28;20671;-77
2023/02/14 01:07:21;;;;;;;6.78;6.18;;;15.80;83.80;;;;;;5021018;28;20041;-77
2023/02/14 01:09:47;;;;;;;7.10;6.50;;;15.80;83.70;;;;;;5030443;28;20045;-77
2023/02/14 01:12:12;;;;;;;7.25;6.55;;;15.80;83.70;;;;;;5027984;28;20053;-77
2023/02/14 01:14:38;;;;;;;6.82;6.22;;;15.80;83.90;;;;;;5031064;28;20040;-77
2023/02/14 01:17:03;;;;;;;7.20;6.60;;;15.80;83.70;;;;;;5028383;28;20095;-77
2023/02/14 01:19:29;;;;;;;7.63;6.95;;;15.80;83.60;;;;;;5028521;28;20037;-78
2023/02/14 01:21:55;;;;;;;7.13;6.53;;;15.80;83.60;;;;;;5030861;28;20131;-77
2023/02/14 01:24:20;;;;;;;7.82;7.07;;;15.80;83.60;;;;;;5032225;28;20073;-77
2023/02/14 01:26:46;;;;;;;7.38;6.78;;;15.80;83.70;;;;;;5034513;28;20064;-77
2023/02/14 01:29:11;;;;;;;7.10;6.50;;;15.70;83.80;;;;;;5034876;28;20127;-77
2023/02/14 01:31:37;;;;;;;7.20;6.50;;;15.70;83.70;;;;;;5048964;28;20282;-77
2023/02/14 01:34:03;;;;;;;7.13;6.60;;;15.70;83.70;;;;;;5036562;28;20247;-77
2023/02/14 01:36:34;;;;;;;7.38;6.78;;;15.70;83.70;;;;;;5036196;28;20583;-77
2023/02/14 01:39:01;;;;;;;6.88;6.38;;;15.80;83.70;;;;;;5033879;28;20045;-77
2023/02/14 01:41:29;;;;;;;7.35;6.65;;;15.70;83.70;;;;;;5034859;28;20172;-78
2023/02/14 01:43:59;;;;;;;7.50;6.85;;;15.70;83.80;;;;;;5031064;28;20060;-77
2023/02/14 01:46:27;;;;;;;6.78;6.18;;;15.60;83.80;;;;;;5050978;28;20045;-77
2023/02/14 01:48:54;;;;;;;6.88;6.28;;;15.60;83.80;;;;;;5029969;28;20044;-77
2023/02/14 01:51:20;;;;;;;6.40;5.90;;;15.60;83.80;;;;;;5052144;28;20070;-77
2023/02/14 01:53:46;;;;;;;6.85;6.25;;;15.60;83.80;;;;;;5051329;28;20052;-77
2023/02/14 01:56:13;;;;;;;6.55;6.15;;;15.60;83.80;;;;;;5021320;28;20590;-77
2023/02/14 01:58:43;;;;;;;6.72;6.13;;;15.60;83.90;;;;;;5015105;28;20131;-77
2023/02/14 02:01:12;;;;;;;6.60;6.00;;;15.60;83.70;;;;;;5028293;28;20056;-77
2023/02/14 02:03:41;;;;;;;6.15;5.60;;;15.60;83.80;;;;;;5041372;28;20049;-77
2023/02/14 02:06:25;;;;;;;6.60;6.00;;;15.60;83.80;;;;;;5068340;28;20049;-77
2023/02/14 02:08:59;;;;;;;6.38;5.88;;;15.60;83.90;;;;;;5065457;28;20049;-77
2023/02/14 02:11:25;;;;;;;6.43;6.00;;;15.50;84.00;;;;;;5066577;28;20543;-77
2023/02/14 02:13:51;;;;;;;5.80;5.30;;;15.50;83.80;;;;;;5035516;28;20049;-78
2023/02/14 02:16:30;;;;;;;6.20;5.80;;;15.60;83.90;;;;;;5036361;28;20118;-77
2023/02/14 02:19:03;;;;;;;5.82;5.43;;;15.50;83.90;;;;;;5047684;28;20052;-77
2023/02/14 02:21:38;;;;;;;5.70;5.30;;;15.50;83.90;;;;;;5025480;28;20481;-78
2023/02/14 02:24:39;;;;;;;6.32;5.90;;;15.50;83.90;;;;;;5032488;28;21283;-77
2023/02/14 02:27:29;;;;;;;6.25;5.75;;;15.50;83.90;;;;;;4982263;28;20068;-77
2023/02/14 02:30:19;;;;;;;6.05;5.53;;;15.50;83.90;;;;;;4967321;28;20049;-77
2023/02/14 02:32:52;;;;;;;6.72;6.22;;;15.40;83.90;;;;;;4992510;28;20056;-77
2023/02/14 02:35:42;;;;;;;5.40;5.10;;;15.50;83.90;;;;;;4978320;28;20042;-77
2023/02/14 02:38:26;;;;;;;6.05;5.65;;;15.40;83.80;;;;;;4996028;28;20113;-77
2023/02/14 02:41:02;;;;;;;7.00;6.43;;;15.50;83.80;;;;;;4994174;28;20048;-77
2023/02/14 02:43:37;;;;;;;5.93;5.45;;;15.40;83.80;;;;;;4980352;28;20566;-78
2023/02/14 02:48:57;;;;;;;5.20;4.80;;;15.40;84.00;;;;;;4994689;28;19970;-77
2023/02/14 02:54:41;;;;;;;6.85;6.35;;;15.40;83.90;;;;;;4969877;28;20048;-77
2023/02/14 02:57:11;;;;;;;6.05;5.63;;;15.40;83.90;;;;;;4996036;28;20136;-77
2023/02/14 02:59:38;;;;;;;6.47;6.05;;;15.30;83.90;;;;;;4994641;28;20030;-77
2023/02/14 03:02:12;;;;;;;6.60;6.10;;;15.40;83.90;;;;;;5000079;28;20143;-77
2023/02/14 03:04:53;;;;;;;6.50;5.90;;;15.30;83.90;;;;;;5051055;28;20060;-77
2023/02/14 03:07:39;;;;;;;6.28;5.78;;;15.40;83.80;;;;;;5033529;28;20469;-77
2023/02/14 03:10:11;;;;;;;6.32;5.93;;;15.40;83.80;;;;;;5030255;28;20142;-77
2023/02/14 03:13:08;;;;;;;5.55;5.15;;;15.30;83.90;;;;;;5023964;28;20548;-77
2023/02/14 03:16:09;;;;;;;6.03;5.63;;;15.30;84.00;;;;;;5032257;28;20049;-77
2023/02/14 03:22:11;;;;;;;5.93;5.53;;;15.30;84.00;;;;;;5046928;28;20099;-77
2023/02/14 03:24:47;;;;;;;6.32;5.65;;;15.30;84.00;;;;;;5023809;28;20040;-77
2023/02/14 03:27:19;;;;;;;5.80;5.40;;;15.30;84.00;;;;;;5051007;28;20056;-77
2023/02/14 03:29:57;;;;;;;5.55;5.15;;;15.30;83.90;;;;;;5032560;28;20124;-76
2023/02/14 03:32:40;;;;;;;5.72;5.30;;;15.30;83.90;;;;;;5034047;28;20033;-77
2023/02/14 03:35:20;;;;;;;7.43;5.65;;;15.20;83.90;;;;;;5028974;28;20136;-77
2023/02/14 03:37:54;;;;;;;5.70;5.30;;;15.30;84.00;;;;;;5047066;28;20561;-77
2023/02/14 03:40:28;;;;;;;6.18;5.78;;;15.20;83.80;;;;;;5030177;28;20145;-77
2023/02/14 03:43:00;;;;;;;5.70;5.30;;;15.30;84.00;;;;;;5048246;28;20587;-78
2023/02/14 03:45:43;;;;;;;5.60;5.20;;;15.30;83.90;;;;;;5046214;28;20053;-77
2023/02/14 03:48:10;;;;;;;5.15;4.85;;;15.20;83.80;;;;;;5047003;28;20052;-77
2023/02/14 03:50:36;;;;;;;5.10;4.78;;;15.20;83.80;;;;;;5048491;28;20045;-77
2023/02/14 03:53:01;;;;;;;5.88;5.38;;;15.20;83.80;;;;;;5031325;28;20530;-77
2023/02/14 03:55:35;;;;;;;5.28;4.97;;;15.20;83.90;;;;;;5013441;28;20047;-77
2023/02/14 03:58:15;;;;;;;6.53;5.95;;;15.20;84.00;;;;;;5048370;28;20413;-77
2023/02/14 04:00:41;;;;;;;5.63;5.22;;;15.20;84.00;;;;;;5031130;28;21191;-77
2023/02/14 04:03:12;;;;;;;5.45;5.15;;;15.20;83.80;;;;;;5031015;28;20060;-77
2023/02/14 04:05:41;;;;;;;6.10;5.57;;;15.20;84.70;;;;;;5031828;28;20056;-77
2023/02/14 04:08:06;;;;;;;4.78;4.45;;;15.10;83.80;;;;;;5032821;28;20191;-77
2023/02/14 04:10:32;;;;;;;5.60;5.10;;;15.10;83.80;;;;;;5030292;28;20064;-77
2023/02/14 04:12:57;;;;;;;5.13;4.72;;;15.20;83.70;;;;;;5030775;28;20254;-77
2023/02/14 04:15:23;;;;;;;5.43;5.03;;;15.20;83.80;;;;;;5029711;28;20314;-77
2023/02/14 04:20:33;;;;;;;5.88;5.28;;;15.20;83.70;;;;;;5045717;28;20052;-77
2023/02/14 04:22:58;;;;;;;5.30;4.90;;;15.20;83.60;;;;;;5031566;28;20048;-77
2023/02/14 04:25:24;;;;;;;5.28;4.95;;;15.20;83.70;;;;;;5033889;28;20577;-77
2023/02/14 04:27:50;;;;;;;5.50;5.10;;;15.10;83.60;;;;;;5032654;28;20082;-76
2023/02/14 04:30:16;;;;;;;5.28;4.80;;;15.10;83.60;;;;;;5032559;28;20052;-77
2023/02/14 04:32:42;;;;;;;5.60;5.18;;;15.10;83.50;;;;;;5033576;28;20067;-77
2023/02/14 04:35:08;;;;;;;5.40;5.00;;;15.20;83.50;;;;;;5033283;28;20048;-77
2023/02/14 04:37:33;;;;;;;5.10;4.80;;;15.20;83.50;;;;;;5033501;28;20041;-77
2023/02/14 04:39:59;;;;;;;4.93;4.63;;;15.20;83.40;;;;;;5032856;28;20048;-77
2023/02/14 04:42:25;;;;;;;4.85;4.55;;;15.20;83.30;;;;;;5047023;28;20052;-77
2023/02/14 04:44:50;;;;;;;4.47;4.18;;;15.20;83.30;;;;;;5033527;28;20052;-76
2023/02/14 04:47:16;;;;;;;5.25;4.95;;;15.20;83.20;;;;;;5034760;28;20521;-77
2023/02/14 04:49:41;;;;;;;5.70;5.30;;;15.30;83.30;;;;;;5029624;28;20052;-77
2023/02/14 04:52:07;;;;;;;5.50;5.10;;;15.30;83.20;;;;;;5032470;28;20132;-77
2023/02/14 04:54:33;;;;;;;4.80;4.50;;;15.30;83.10;;;;;;5030779;28;20044;-77
2023/02/14 04:56:58;;;;;;;5.10;4.80;;;15.30;83.00;;;;;;5034259;28;20064;-77
2023/02/14 04:59:24;;;;;;;4.90;4.50;;;15.30;83.00;;;;;;5034171;28;20052;-77
2023/02/14 05:01:50;;;;;;;5.00;4.63;;;15.30;83.10;;;;;;5030045;28;20530;-77
2023/02/14 05:04:15;;;;;;;4.68;4.38;;;15.30;83.20;;;;;;5037215;28;20090;-78
2023/02/14 05:06:41;;;;;;;4.95;4.65;;;15.30;83.20;;;;;;5036851;28;20589;-77
2023/02/14 05:09:06;;;;;;;5.03;4.72;;;15.20;83.20;;;;;;5037250;28;20056;-77
2023/02/14 05:11:32;;;;;;;4.75;4.45;;;15.30;83.20;;;;;;5053954;28;20049;-77
2023/02/14 05:13:57;;;;;;;4.57;4.28;;;15.30;83.20;;;;;;5037573;28;20047;-77
2023/02/14 05:16:23;;;;;;;4.30;4.10;;;15.30;83.10;;;;;;5038398;28;20044;-78
2023/02/14 05:18:49;;;;;;;4.90;4.60;;;15.30;83.20;;;;;;5038673;28;22580;-77
2023/02/14 05:21:14;;;;;;;5.10;4.80;;;15.30;83.20;;;;;;5037057;28;20133;-77
2023/02/14 05:23:40;;;;;;;4.82;4.53;;;15.30;83.20;;;;;;5038054;28;21780;-77
2023/02/14 05:26:05;;;;;;;5.18;4.88;;;15.20;83.20;;;;;;5035819;28;20529;-77
2023/02/14 05:28:31;;;;;;;5.10;4.80;;;15.20;83.30;;;;;;5035702;28;20056;-77
2023/02/14 05:30:57;;;;;;;4.75;4.45;;;15.20;83.20;;;;;;5033910;28;20056;-77
2023/02/14 05:33:23;;;;;;;5.32;5.03;;;15.20;83.20;;;;;;5051146;28;20118;-77
2023/02/14 05:35:48;;;;;;;7.90;4.65;;;15.20;84.10;;;;;;5039178;28;20041;-76
2023/02/14 05:38:14;;;;;;;4.72;4.43;;;15.20;83.30;;;;;;5047320;28;20041;-77
2023/02/14 05:40:40;;;;;;;4.65;4.35;;;15.20;83.30;;;;;;5034582;28;20103;-77
2023/02/14 05:43:06;;;;;;;4.70;4.40;;;15.20;84.00;;;;;;5035298;28;20486;-77
2023/02/14 05:45:31;;;;;;;5.00;4.70;;;15.20;83.20;;;;;;5032917;28;20067;-77
2023/02/14 05:47:57;;;;;;;4.63;4.32;;;15.20;83.30;;;;;;5036369;28;20469;-76
2023/02/14 05:50:22;;;;;;;4.25;4.05;;;15.20;83.20;;;;;;5036413;28;20048;-77
2023/02/14 05:52:48;;;;;;;4.50;4.25;;;15.20;84.00;;;;;;5034821;28;20502;-74
2023/02/14 05:55:14;;;;;;;5.00;4.63;;;15.20;83.30;;;;;;5033836;28;20098;-77
2023/02/14 05:57:40;;;;;;;4.20;4.00;;;15.10;83.40;;;;;;5033461;28;20091;-77
2023/02/14 06:00:06;;;;;;;4.35;4.15;;;15.20;83.30;;;;;;5033574;28;20558;-77
2023/02/14 06:02:32;;;;;;;4.07;3.88;;;15.20;83.20;;;;;;5036593;28;20045;-77
2023/02/14 06:04:57;;;;;;;5.50;4.63;;;15.20;83.60;;;;;;5033223;28;20414;-76
2023/02/14 06:07:23;;;;;;;3.90;3.70;;;15.30;83.40;;;;;;5036444;28;20550;-77
2023/02/14 06:09:48;;;;;;;4.40;4.13;;;15.20;83.60;;;;;;5031997;28;21143;-78
2023/02/14 06:12:14;;;;;;;5.25;4.90;;;15.20;85.10;;;;;;5034924;28;20149;-77
2023/02/14 06:14:41;;;;;;;4.82;4.45;;;15.20;86.70;;;;;;5035803;28;20415;-77
2023/02/14 06:17:08;;;;;;;5.18;4.88;;;15.20;86.10;;;;;;5034335;28;20049;-77
2023/02/14 06:19:33;;;;;;;5.50;5.10;;;15.20;84.80;;;;;;5050655;28;21813;-77
2023/02/14 06:21:59;;;;;;;4.75;4.45;;;15.20;84.80;;;;;;5034407;28;20056;-76
2023/02/14 06:24:24;;;;;;;4.60;4.30;;;15.20;84.50;;;;;;5035510;28;20107;-78
2023/02/14 06:26:50;;;;;;;5.07;4.78;;;15.20;84.40;;;;;;5033794;28;20482;-78
2023/02/14 06:29:16;;;;;;;4.40;4.10;;;15.20;84.40;;;;;;5033430;28;20075;-82
2023/02/14 06:31:41;;;;;;;4.75;4.47;;;15.20;84.40;;;;;;5034564;28;20107;-78
2023/02/14 06:34:07;;;;;;;5.05;4.60;;;15.20;85.00;;;;;;5033463;28;20045;-75
2023/02/14 06:36:32;;;;;;;5.13;4.65;;;15.20;84.60;;;;;;5035290;28;20045;-77
2023/02/14 06:38:58;;;;;;;5.50;5.10;;;15.20;84.40;;;;;;5033786;28;20045;-77
2023/02/14 06:41:24;;;;;;;5.90;5.30;;;15.20;84.10;;;;;;5035467;28;20778;-76
2023/02/14 06:43:49;;;;;;;7.43;4.85;;;15.20;83.20;;;;;;5032052;28;20565;-76
2023/02/14 06:46:16;;;;;;;5.28;4.97;;;15.10;83.50;;;;;;5031359;28;20139;-77
2023/02/14 06:48:41;;;;;;;5.28;4.88;;;15.20;85.00;;;;;;5035317;28;20036;-76
2023/02/14 06:51:07;;;;;;;5.57;5.18;;;15.20;84.80;;;;;;5033315;28;20118;-76
2023/02/14 06:53:32;;;;;;;4.85;4.45;;;15.20;84.80;;;;;;5035929;28;20072;-75
2023/02/14 06:55:58;;;;;;;5.07;4.70;;;15.20;84.90;;;;;;5033182;28;20098;-76
2023/02/14 06:58:24;;;;;;;5.00;4.60;;;15.10;84.80;;;;;;5033115;28;20079;-75
2023/02/14 07:00:50;;;;;;;5.32;4.93;;;15.10;84.80;;;;;;5035128;28;20469;-74
2023/02/14 07:03:15;;;;;;;4.50;4.20;;;15.10;85.00;;;;;;5029788;28;20045;-75
2023/02/14 07:05:41;;;;;;;4.47;4.25;;;15.10;85.30;;;;;;5037396;28;20044;-75
2023/02/14 07:08:07;;;;;;;4.20;3.90;;;15.20;85.10;;;;;;5031684;28;20072;-75
2023/02/14 07:10:33;;;;;;;5.55;5.03;;;15.20;85.00;;;;;;5034777;28;20040;-74
2023/02/14 07:12:59;;;;;;;4.40;4.10;;;15.20;85.40;;;;;;5047874;28;20452;-74
2023/02/14 07:15:25;;;;;;;4.80;4.45;;;15.20;85.90;;;;;;5035342;28;20510;-76
2023/02/14 07:17:51;;;;;;;4.60;4.30;;;15.20;85.10;;;;;;5034800;28;20042;-75
2023/02/14 07:20:17;;;;;;;4.82;4.53;;;15.20;85.30;;;;;;5032941;28;20140;-74
2023/02/14 07:22:42;;;;;;;5.07;4.70;;;15.10;85.90;;;;;;5032460;28;20098;-74
2023/02/14 07:25:08;;;;;;;4.78;4.45;;;15.10;85.20;;;;;;5047185;28;20048;-74
2023/02/14 07:27:33;;;;;;;5.35;4.80;;;15.10;85.70;;;;;;5049704;28;20074;-74
2023/02/14 07:29:59;;;;;;;6.00;5.40;;;15.10;85.00;;;;;;5048595;28;20116;-74
2023/02/14 07:32:25;;;;;;;5.38;4.88;;;15.10;85.00;;;;;;5037816;28;20037;-75
2023/02/14 07:34:50;;;;;;;4.97;4.65;;;15.10;85.10;;;;;;5048122;28;20059;-75
2023/02/14 07:37:16;;;;;;;4.93;4.53;;;15.20;85.80;;;;;;5034135;28;20448;-75
2023/02/14 07:39:43;;;;;;;5.03;4.63;;;15.10;85.80;;;;;;5034744;28;20037;-75
2023/02/14 07:42:09;;;;;;;5.57;5.10;;;15.10;86.10;;;;;;5034293;28;20057;-76
2023/02/14 07:44:37;;;;;;;5.25;4.95;;;15.10;86.30;;;;;;5034704;28;20108;-76
2023/02/14 07:47:02;;;;;;;4.65;4.25;;;15.10;86.20;;;;;;5035464;28;20048;-76
2023/02/14 07:49:28;;;;;;;5.75;5.35;;;15.10;86.20;;;;;;5034712;28;20055;-74
2023/02/14 07:51:53;;;;;;;5.07;4.78;;;15.10;86.40;;;;;;5034124;28;20583;-75
2023/02/14 07:54:19;;;;;;;4.50;4.15;;;15.20;86.50;;;;;;5036976;28;20051;-75
2023/02/14 07:56:45;;;;;;;4.60;4.30;;;15.20;87.20;;;;;;5038665;28;20033;-74
2023/02/14 07:59:10;;;;;;;4.85;4.55;;;15.20;87.30;;;;;;5035392;28;20434;-75
2023/02/14 08:01:36;;;;;;;4.88;4.57;;;15.20;87.20;;;;;;5036623;28;20116;-75
2023/02/14 08:04:01;;;;;;;5.10;4.70;;;15.10;86.80;;;;;;5033980;28;20074;-74
2023/02/14 08:06:27;;;;;;;4.70;4.32;;;15.10;86.90;;;;;;5051583;28;20045;-74
2023/02/14 08:08:53;;;;;;;4.60;4.30;;;15.10;87.10;;;;;;5034313;28;20094;-69
2023/02/14 08:14:03;;;;;;;5.00;4.60;;;15.20;88.10;;;;;;5032355;28;20055;-70
2023/02/14 08:16:31;;;;;;;5.53;4.15;;;15.20;87.90;;;;;;5034103;28;20041;-70
2023/02/14 08:18:56;;;;;;;4.93;4.53;;;15.10;87.80;;;;;;5035311;28;20044;-70
2023/02/14 08:21:22;;;;;;;4.88;4.57;;;15.10;87.50;;;;;;5048924;28;20041;-70
2023/02/14 08:23:47;;;;;;;6.47;4.65;;;15.00;87.70;;;;;;5034661;28;20533;-69
2023/02/14 08:26:13;;;;;;;4.88;4.57;;;15.00;87.80;;;;;;5033925;28;20151;-69
2023/02/14 08:28:39;;;;;;;5.28;4.88;;;15.00;87.90;;;;;;5035900;28;20045;-70
2023/02/14 08:31:04;;;;;;;4.18;3.88;;;15.00;87.90;;;;;;5033634;28;20053;-70
2023/02/14 08:33:30;;;;;;;4.85;4.55;;;15.00;88.00;;;;;;5034848;28;20849;-69
2023/02/14 08:35:56;;;;;;;4.70;4.30;;;15.00;87.90;;;;;;5034459;28;20037;-69
2023/02/14 08:38:22;;;;;;;5.30;4.80;;;15.00;88.10;;;;;;5033072;28;20064;-70
2023/02/14 08:40:47;;;;;;;4.30;4.00;;;15.00;88.20;;;;;;5033943;28;20191;-70
2023/02/14 08:43:13;;;;;;;4.72;4.32;;;15.00;88.00;;;;;;5033525;28;20045;-70
2023/02/14 08:45:39;;;;;;;4.90;4.57;;;15.00;88.00;;;;;;5033303;28;20051;-70
2023/02/14 08:48:10;;;;;;;4.22;3.92;;;15.00;88.10;;;;;;5034106;28;20411;-70
2023/02/14 08:50:36;;;;;;;4.35;3.97;;;15.00;88.10;;;;;;5032716;28;20036;-69
2023/02/14 08:53:08;;;;;;;4.93;4.03;;;14.90;87.90;;;;;;5034011;28;20048;-70
2023/02/14 08:55:34;;;;;;;4.57;4.28;;;14.90;88.00;;;;;;5034336;28;20128;-69
2023/02/14 08:58:00;;;;;;;4.85;4.55;;;14.90;87.80;;;;;;5031380;28;20049;-70
2023/02/14 09:00:25;;;;;;;4.60;4.30;;;14.90;87.70;;;;;;5034054;28;20044;-70
2023/02/14 09:02:51;;;;;;;4.65;4.25;;;14.90;87.80;;;;;;5035414;28;20097;-70
2023/02/14 09:05:18;;;;;;;4.95;4.40;;;15.00;88.00;;;;;;5032284;28;20045;-70
2023/02/14 09:07:43;;;;;;;4.93;4.50;;;15.00;87.70;;;;;;5033430;28;20753;-70
2023/02/14 09:10:09;;;;;;;4.72;4.00;;;14.90;87.70;;;;;;5032963;28;20563;-70
2023/02/14 09:12:38;;;;;;;3.60;3.40;;;15.00;87.70;;;;;;5034265;28;20154;-70
2023/02/14 09:15:04;;;;;;;4.65;4.35;;;15.10;87.50;;;;;;5032873;28;21851;-70
2023/02/14 09:17:30;;;;;;;4.13;3.83;;;15.10;87.30;;;;;;5033715;28;20036;-70
2023/02/14 09:19:55;;;;;;;4.55;4.15;;;15.20;87.00;;;;;;5030953;28;20127;-70
2023/02/14 09:22:21;;;;;;;3.85;3.65;;;15.20;86.80;;;;;;5032896;28;20087;-70
2023/02/14 09:24:46;;;;;;;4.13;3.78;;;15.20;86.60;;;;;;5033069;28;20536;-70
2023/02/14 09:27:12;;;;;;;4.38;4.07;;;15.20;86.40;;;;;;5033825;28;20064;-70
2023/02/14 09:29:37;;;;;;;4.28;3.97;;;15.20;86.30;;;;;;5035009;28;20498;-70
2023/02/14 09:32:03;;;;;;;4.50;4.20;;;15.20;86.30;;;;;;5033237;28;20768;-70
2023/02/14 09:34:30;;;;;;;3.72;3.42;;;15.20;86.30;;;;;;5046916;28;20583;-70
2023/02/14 09:36:55;;;;;;;4.53;4.32;;;15.30;85.90;;;;;;5048720;28;20620;-70
2023/02/14 09:39:21;;;;;;;4.97;4.53;;;15.30;85.70;;;;;;5048438;28;20597;-70
2023/02/14 09:42:16;;;;;;;4.85;4.50;;;15.30;85.70;;;;;;5033015;28;20049;-70
2023/02/14 09:44:47;;;;;;;4.13;3.92;;;15.30;85.80;;;;;;5034336;28;20075;-70
2023/02/14 09:47:12;;;;;;;4.38;4.05;;;15.30;85.30;;;;;;5033024;28;20190;-70
2023/02/14 09:49:38;;;;;;;3.72;3.53;;;15.40;85.30;;;;;;5035228;28;20399;-70
2023/02/14 09:52:05;;;;;;;4.55;4.22;;;15.40;85.30;;;;;;5051781;28;20049;-70
2023/02/14 09:54:33;;;;;;;3.97;3.78;;;15.40;75.60;;;;;;5050802;28;20044;-70
2023/02/14 09:57:10;;;;;;;3.80;3.60;;;15.40;73.80;;;;;;5035656;28;20053;-70
2023/02/14 10:00:06;;;;;;;3.97;3.65;;;15.40;72.60;;;;;;5037621;28;20053;-70
2023/02/14 10:02:41;;;;;;;3.67;3.47;;;15.50;74.60;;;;;;5036159;28;20120;-70
2023/02/14 10:05:20;;;;;;;4.25;3.95;;;15.50;71.50;;;;;;5037488;28;20086;-70
2023/02/14 10:08:24;;;;;;;4.10;3.90;;;15.40;70.40;;;;;;5036717;28;20071;-70
2023/02/14 10:10:58;;;;;;;4.68;4.38;;;15.40;77.60;;;;;;5050611;28;20528;-70
2023/02/14 10:13:39;;;;;;;3.97;3.78;;;15.70;69.60;;;;;;5033770;28;20036;-70
2023/02/14 10:16:19;;;;;;;4.57;4.28;;;15.60;78.20;;;;;;5051440;28;20041;-70
2023/02/14 10:18:48;;;;;;;4.28;4.07;;;15.60;77.20;;;;;;5052332;28;20037;-69
2023/02/14 10:21:26;;;;;;;4.15;3.95;;;15.50;81.10;;;;;;5035291;28;20119;-70
2023/02/14 10:24:15;;;;;;;4.10;3.80;;;15.50;75.20;;;;;;5052408;28;20039;-70
2023/02/14 10:26:40;;;;;;;3.67;3.45;;;15.60;76.10;;;;;;5034233;28;20055;-69
2023/02/14 10:29:15;;;;;;;3.92;3.63;;;15.60;75.50;;;;;;5036471;28;20037;-70
2023/02/14 10:31:43;;;;;;;;;;;15.60;75.10;;;;;;5051372;28;20056;-70
2023/02/14 10:34:15;;;;;;;3.90;3.60;;;15.60;77.40;;;;;;5050001;28;19983;-71
2023/02/14 10:36:53;;;;;;;3.75;3.55;;;15.70;78.20;;;;;;5034744;28;20037;-70
2023/02/14 10:39:28;;;;;;;3.83;3.58;;;15.60;78.10;;;;;;5033566;28;20043;-70
2023/02/14 10:42:21;;;;;;;3.28;3.08;;;15.70;70.00;;;;;;5037850;28;20465;-70
2023/02/14 10:45:00;;;;;;;3.58;3.38;;;15.70;70.40;;;;;;5052410;28;20132;-70
2023/02/14 10:47:45;;;;;;;4.00;3.75;;;15.70;68.80;;;;;;5032171;28;20060;-70
2023/02/14 10:50:27;;;;;;;3.90;3.60;;;15.70;71.10;;;;;;5034483;28;20052;-70
2023/02/14 10:53:14;;;;;;;3.80;3.58;;;15.70;72.90;;;;;;5051060;28;20043;-70
2023/02/14 10:55:51;;;;;;;3.60;3.40;;;15.70;72.80;;;;;;5033930;28;20557;-70
2023/02/14 10:58:18;;;;;;;3.60;3.30;;;15.70;73.20;;;;;;5049252;28;20087;-70
2023/02/14 11:00:58;;;;;;;3.80;3.60;;;15.70;74.00;;;;;;5044911;28;20054;-69
2023/02/14 11:03:24;;;;;;;3.95;3.65;;;15.70;74.60;;;;;;5033573;28;20144;-69
2023/02/14 11:05:50;;;;;;;4.18;3.80;;;15.80;76.10;;;;;;5038389;28;20063;-69
2023/02/14 11:08:29;;;;;;;8.18;4.10;;;15.80;76.90;;;;;;5033816;28;20118;-69
2023/02/14 11:10:57;;;;;;;4.93;3.92;;;15.80;77.10;;;;;;5051977;28;20043;-69
2023/02/14 11:13:34;;;;;;;4.43;3.72;;;15.80;77.80;;;;;;5047419;28;20045;-70
2023/02/14 11:16:08;;;;;;;3.88;3.65;;;15.80;78.30;;;;;;5035236;28;20567;-69
2023/02/14 11:18:34;;;;;;;4.47;4.22;;;15.80;78.60;;;;;;5033979;28;20498;-69
2023/02/14 11:21:06;;;;;;;4.05;3.70;;;15.80;78.30;;;;;;5034489;28;22355;-69
2023/02/14 11:23:36;;;;;;;3.90;3.60;;;15.80;78.40;;;;;;5035811;28;20045;-70
2023/02/14 11:26:04;;;;;;;3.88;3.63;;;15.80;78.30;;;;;;5033098;28;20537;-69
2023/02/14 11:28:30;;;;;;;3.58;3.25;;;15.80;78.20;;;;;;5048992;28;20056;-70
2023/02/14 11:30:55;;;;;;;4.65;4.25;;;15.80;78.40;;;;;;5033562;28;20037;-70
2023/02/14 11:33:37;;;;;;;4.10;3.90;;;15.80;78.40;;;;;;5049395;28;20144;-70
2023/02/14 11:36:04;;;;;;;3.72;3.53;;;15.80;78.50;;;;;;5049221;28;20044;-69
2023/02/14 11:38:35;;;;;;;3.20;3.03;;;15.80;78.40;;;;;;5033993;28;20064;-70
2023/02/14 11:41:01;;;;;;;3.67;3.47;;;15.80;78.10;;;;;;5034499;28;22317;-69
2023/02/14 11:43:40;;;;;;;3.35;3.15;;;15.80;78.00;;;;;;5050165;28;20036;-70
2023/02/14 11:46:14;;;;;;;3.78;3.58;;;15.80;78.60;;;;;;5034327;28;20072;-70
2023/02/14 11:49:00;;;;;;;4.00;3.80;;;15.80;77.50;;;;;;5034444;28;20087;-70
2023/02/14 11:51:46;;;;;;;3.90;3.70;;;15.80;77.60;;;;;;5048035;28;20037;-70
2023/02/14 11:54:22;;;;;;;3.42;3.22;;;15.80;77.80;;;;;;5032262;28;20445;-70
2023/02/14 11:56:55;;;;;;;3.70;3.50;;;15.80;77.80;;;;;;5036772;28;20063;-69
2023/02/14 11:59:28;;;;;;;4.18;3.97;;;15.80;77.50;;;;;;5027027;28;20280;-70
2023/02/14 12:01:55;;;;;;;3.55;3.35;;;15.80;78.60;;;;;;5048917;28;20045;-69
2023/02/14 12:04:26;;;;;;;4.28;4.00;;;15.80;78.20;;;;;;5048559;28;20103;-70
2023/02/14 12:06:51;;;;;;;3.22;3.03;;;15.80;77.30;;;;;;5035743;28;21654;-69
2023/02/14 12:09:23;;;;;;;3.40;3.20;;;15.80;77.10;;;;;;5047169;28;20041;-69
2023/02/14 12:11:59;;;;;;;4.75;4.45;;;15.80;77.60;;;;;;5034780;28;20033;-69
2023/02/14 12:14:27;;;;;;;3.67;3.35;;;15.80;78.50;;;;;;5032965;28;20053;-70
2023/02/14 12:17:06;;;;;;;3.63;3.42;;;15.90;79.10;;;;;;5016268;28;20885;-70
2023/02/14 12:19:48;;;;;;;5.53;5.13;;;15.90;77.60;;;;;;5048587;28;20060;-69
2023/02/14 12:22:16;;;;;;;7.43;6.82;;;16.00;76.00;;;;;;5046087;28;20684;-70
2023/02/14 12:24:47;;;;;;;6.18;5.68;;;16.10;74.70;;;;;;5034567;28;20414;-70
2023/02/14 12:27:23;;;;;;;7.50;6.90;;;16.00;74.10;;;;;;5033956;28;20679;-70
2023/02/14 12:30:04;;;;;;;7.32;6.72;;;16.00;73.00;;;;;;5049653;28;20048;-70
2023/02/14 12:32:30;;;;;;;7.20;6.57;;;16.00;74.00;;;;;;5033446;28;20055;-69
2023/02/14 12:35:22;;;;;;;6.20;5.80;;;16.00;74.70;;;;;;5032448;28;20053;-71
2023/02/14 12:37:51;;;;;;;6.22;5.72;;;16.00;76.40;;;;;;5032898;28;20068;-69
2023/02/14 12:40:23;;;;;;;6.38;5.97;;;15.90;77.10;;;;;;5048262;28;20049;-70
2023/02/14 12:43:03;;;;;;;6.20;5.80;;;16.00;76.30;;;;;;5034158;28;20123;-69
2023/02/14 12:45:53;;;;;;;6.95;6.45;;;16.00;76.60;;;;;;5032458;28;20045;-70
2023/02/14 12:48:47;;;;;;;5.78;5.38;;;16.00;77.20;;;;;;5027538;28;20037;-71
2023/02/14 12:51:20;;;;;;;6.07;5.57;;;16.00;77.60;;;;;;5034818;28;20052;-69
2023/02/14 12:54:12;;;;;;;5.93;5.53;;;16.00;77.90;;;;;;5049907;28;21765;-69
2023/02/14 12:57:10;;;;;;;5.72;5.30;;;16.00;78.50;;;;;;5035757;28;20033;-69
2023/02/14 12:59:42;;;;;;;5.38;4.97;;;16.00;79.00;;;;;;4993041;28;20049;-69
2023/02/14 13:02:17;;;;;;;4.65;4.35;;;16.00;78.50;;;;;;4974910;28;20081;-69
2023/02/14 13:05:05;;;;;;;5.10;4.65;;;16.00;78.50;;;;;;4975844;28;20226;-69
2023/02/14 13:07:37;;;;;;;5.55;5.07;;;16.00;78.60;;;;;;4969219;28;20156;-69
2023/02/14 13:10:24;;;;;;;4.68;4.28;;;16.00;78.80;;;;;;4985201;28;20049;-69
2023/02/14 13:12:51;;;;;;;5.18;4.78;;;16.00;78.30;;;;;;4989942;28;20053;-69
2023/02/14 13:15:24;;;;;;;5.03;4.68;;;16.00;78.20;;;;;;4998315;28;20080;-70
2023/02/14 13:17:53;;;;;;;4.97;4.57;;;15.90;78.50;;;;;;4981319;28;20528;-69